Time;durP1;ratioP1;P1;durP2;ratioP2;P2;SDS_P1;SDS_P2;PMS_P1;PMS_P2;Temp;Humidity;BMP_temperature;BMP_pressure;BME280_temperature;BME280_humidity;BME280_pressure;Samples;Min_cycle;Max_cycle;Signal;HPM_P1;HPM_P2
2023/08/25 00:00:55;;;;;;;31.10;23.55;;;;;;;19.61;100.00;100899.78;10451413;28;20036;-69
2023/08/25 00:05:56;;;;;;;34.50;24.35;;;;;;;19.57;100.00;100895.91;10453057;28;20060;-69
2023/08/25 00:10:56;;;;;;;26.33;22.88;;;;;;;19.52;100.00;100888.41;10451933;28;20097;-69
2023/08/25 00:15:57;;;;;;;27.55;21.88;;;;;;;19.49;100.00;100882.59;10453439;28;20106;-69
2023/08/25 00:20:57;;;;;;;30.48;23.95;;;;;;;19.45;100.00;100882.28;10453066;28;20210;-69
2023/08/25 00:25:57;;;;;;;33.60;21.85;;;;;;;19.39;100.00;100887.97;10453906;28;20441;-69
2023/08/25 00:30:58;;;;;;;30.42;20.23;;;;;;;19.34;100.00;100885.19;10452305;28;20444;-69
2023/08/25 00:35:58;;;;;;;30.92;22.73;;;;;;;19.31;100.00;100882.97;10452365;28;20033;-69
2023/08/25 00:40:59;;;;;;;29.50;22.92;;;;;;;19.24;100.00;100886.72;10458900;28;20109;-69
2023/08/25 00:46:00;;;;;;;25.52;22.27;;;;;;;19.16;100.00;100889.06;10443026;28;20037;-69
2023/08/25 00:51:00;;;;;;;32.10;23.38;;;;;;;19.10;100.00;100888.19;10459554;28;20472;-69
2023/08/25 00:56:00;;;;;;;24.23;21.00;;;;;;;19.10;100.00;100901.06;10457782;28;20480;-69
2023/08/25 01:01:03;;;;;;;36.58;26.10;;;;;;;19.11;100.00;100897.22;10459285;28;20041;-69
2023/08/25 01:06:04;;;;;;;28.95;20.77;;;;;;;19.10;100.00;100896.41;10458521;28;20478;-69
2023/08/25 01:11:43;;;;;;;31.65;21.48;;;;;;;19.07;100.00;100896.09;10457684;28;20032;-69
2023/08/25 01:16:53;;;;;;;28.13;24.05;;;;;;;19.22;100.00;100896.31;10362264;28;20158;-69
2023/08/25 01:21:54;;;;;;;27.48;21.77;;;;;;;19.37;100.00;100882.75;10458837;28;20032;-69
2023/08/25 01:26:54;;;;;;;25.98;22.55;;;;;;;19.40;100.00;100889.63;10441526;28;20429;-69
2023/08/25 01:31:56;;;;;;;32.63;23.42;;;;;;;19.37;100.00;100885.50;10459181;28;20124;-69
2023/08/25 01:37:18;;;;;;;25.17;22.08;;;;;;;19.24;100.00;100878.50;10458913;28;20127;-69
2023/08/25 01:42:19;;;;;;;26.75;22.73;;;;;;;19.18;100.00;100886.91;10459780;28;20033;-69
2023/08/25 01:47:19;;;;;;;30.30;23.52;;;;;;;19.22;100.00;100888.06;10456641;28;20037;-69
2023/08/25 01:52:20;;;;;;;45.88;24.83;;;;;;;19.14;100.00;100874.78;10457598;28;20074;-69
2023/08/25 01:57:20;;;;;;;40.08;26.17;;;;;;;19.01;100.00;100867.75;10440164;28;20473;-69
2023/08/25 02:02:21;;;;;;;43.58;27.90;;;;;;;18.94;100.00;100865.19;10457528;28;20504;-69
2023/08/25 02:07:23;;;;;;;43.17;29.05;;;;;;;18.90;100.00;100868.72;10458339;28;20037;-69
2023/08/25 02:12:23;;;;;;;44.95;27.00;;;;;;;18.92;100.00;100867.38;10455552;28;20036;-69
2023/08/25 02:17:23;;;;;;;45.38;30.17;;;;;;;18.98;100.00;100860.00;10457884;28;20067;-69
2023/08/25 02:22:24;;;;;;;44.88;32.97;;;;;;;18.95;100.00;100857.78;10457056;28;20047;-69
2023/08/25 02:27:24;;;;;;;47.97;29.10;;;;;;;18.91;100.00;100845.66;10470699;28;20033;-69
2023/08/25 02:32:25;;;;;;;39.55;28.55;;;;;;;18.84;100.00;100829.38;10439567;28;20568;-69
2023/08/25 02:37:25;;;;;;;42.92;29.65;;;;;;;18.80;100.00;100834.56;10457948;28;20464;-69
2023/08/25 02:42:26;;;;;;;39.42;31.63;;;;;;;18.83;100.00;100830.47;10457022;28;20099;-69
2023/08/25 02:47:26;;;;;;;34.03;25.15;;;;;;;18.98;100.00;100816.09;10457846;28;20037;-69
2023/08/25 02:52:26;;;;;;;42.90;30.30;;;;;;;19.09;100.00;100815.16;10457156;28;20040;-69
2023/08/25 02:57:27;;;;;;;53.15;28.90;;;;;;;19.20;100.00;100816.09;10440400;28;20040;-69
2023/08/25 03:02:27;;;;;;;52.00;30.48;;;;;;;19.25;100.00;100810.69;10459632;28;20032;-69
2023/08/25 03:07:28;;;;;;;44.15;27.25;;;;;;;19.29;100.00;100804.41;10461751;28;20040;-69
2023/08/25 03:12:28;;;;;;;46.72;28.08;;;;;;;19.38;100.00;100803.97;10461901;28;20044;-69
2023/08/25 03:17:29;;;;;;;44.10;25.00;;;;;;;19.38;100.00;100791.03;10457178;28;20146;-70
2023/08/25 03:22:30;;;;;;;42.28;23.40;;;;;;;19.41;100.00;100793.28;10456825;28;20064;-69
2023/08/25 03:27:34;;;;;;;40.85;24.00;;;;;;;19.43;100.00;100784.75;10455953;28;20160;-69
2023/08/25 03:32:34;;;;;;;31.73;23.45;;;;;;;19.42;100.00;100778.44;10439247;28;20495;-69
2023/08/25 03:37:35;;;;;;;37.60;21.90;;;;;;;19.48;100.00;100771.09;10457573;28;20110;-69
2023/08/25 03:42:36;;;;;;;38.20;22.23;;;;;;;19.49;100.00;100776.31;10457384;28;20112;-70
2023/08/25 03:47:36;;;;;;;25.75;18.70;;;;;;;19.48;100.00;100776.59;10456672;28;20097;-69
2023/08/25 03:52:37;;;;;;;21.33;17.27;;;;;;;19.49;100.00;100778.25;10458987;28;20052;-69
2023/08/25 03:57:37;;;;;;;21.05;15.30;;;;;;;19.55;100.00;100779.94;10455728;28;20045;-69
2023/08/25 04:02:39;;;;;;;31.80;16.63;;;;;;;19.57;100.00;100764.03;10453874;28;20037;-69
2023/08/25 04:07:40;;;;;;;21.30;18.15;;;;;;;19.58;100.00;100762.94;10452806;28;20037;-69
2023/08/25 04:12:40;;;;;;;21.27;15.23;;;;;;;19.58;100.00;100764.88;10438901;28;20056;-69
2023/08/25 04:17:41;;;;;;;26.75;14.60;;;;;;;19.58;100.00;100762.94;10440873;28;20089;-69
2023/08/25 04:22:41;;;;;;;20.73;14.48;;;;;;;19.63;100.00;100756.69;10460120;28;20041;-69
2023/08/25 04:27:42;;;;;;;27.50;15.70;;;;;;;19.64;100.00;100759.19;10461101;28;20126;-69
2023/08/25 04:32:42;;;;;;;23.42;15.27;;;;;;;19.67;100.00;100764.16;10461397;28;20439;-70
2023/08/25 04:37:47;;;;;;;16.35;14.10;;;;;;;19.71;100.00;100769.97;10459250;28;20527;-69
2023/08/25 04:42:47;;;;;;;18.67;14.48;;;;;;;19.73;100.00;100776.03;10462722;28;20094;-71
2023/08/25 04:47:48;;;;;;;26.23;15.80;;;;;;;19.78;100.00;100780.72;10459965;28;20082;-70
2023/08/25 04:52:48;;;;;;;23.38;14.80;;;;;;;19.79;100.00;100777.72;10459336;28;20061;-72
2023/08/25 04:57:49;;;;;;;23.15;16.67;;;;;;;19.82;100.00;100782.72;10458122;28;20538;-70
2023/08/25 05:02:49;;;;;;;31.95;16.42;;;;;;;19.84;100.00;100777.75;10459285;28;20123;-70
2023/08/25 05:07:50;;;;;;;22.20;15.77;;;;;;;19.85;100.00;100773.94;10458904;28;20043;-70
2023/08/25 05:12:51;;;;;;;34.38;19.30;;;;;;;19.85;100.00;100773.13;10456720;28;20033;-70
2023/08/25 05:17:51;;;;;;;26.77;17.60;;;;;;;19.81;100.00;100759.06;10459311;28;20468;-69
2023/08/25 05:22:52;;;;;;;24.65;18.83;;;;;;;19.79;100.00;100766.75;10457582;28;20045;-69
2023/08/25 05:27:52;;;;;;;29.40;20.55;;;;;;;19.74;100.00;100763.94;10458717;28;20043;-69
2023/08/25 05:32:53;;;;;;;24.45;19.67;;;;;;;19.72;100.00;100760.66;10440345;28;20085;-70
2023/08/25 05:37:53;;;;;;;22.98;17.02;;;;;;;19.77;100.00;100754.34;10456525;28;20076;-69
2023/08/25 05:42:53;;;;;;;34.58;21.88;;;;;;;19.88;100.00;100758.84;10457681;28;20072;-70
2023/08/25 05:47:54;;;;;;;23.58;20.50;;;;;;;20.08;100.00;100753.50;10455934;28;20052;-69
2023/08/25 05:52:54;;;;;;;30.67;22.83;;;;;;;20.17;100.00;100756.59;10456459;28;20088;-69
2023/08/25 05:57:55;;;;;;;27.85;22.80;;;;;;;20.19;100.00;100751.63;10456576;28;20033;-70
2023/08/25 06:02:55;;;;;;;34.97;25.67;;;;;;;20.18;100.00;100753.56;10456562;28;20476;-69
2023/08/25 06:07:56;;;;;;;45.33;25.92;;;;;;;20.21;100.00;100742.03;10454722;28;20029;-70
2023/08/25 06:12:56;;;;;;;31.48;26.40;;;;;;;20.26;100.00;100732.16;10455621;28;20124;-69
2023/08/25 06:17:56;;;;;;;37.00;25.85;;;;;;;20.30;100.00;100736.03;10438447;28;20088;-70
2023/08/25 06:22:57;;;;;;;34.20;25.90;;;;;;;20.34;100.00;100737.16;10455752;28;20065;-69
2023/08/25 06:27:59;;;;;;;40.22;25.27;;;;;;;20.41;100.00;100746.00;10455242;28;20591;-70
2023/08/25 06:32:59;;;;;;;28.27;25.42;;;;;;;20.97;100.00;100740.75;10455417;28;20443;-70
2023/08/25 06:38:02;;;;;;;35.00;24.52;;;;;;;21.03;100.00;100745.19;10454620;28;20040;-70
2023/08/25 06:43:03;;;;;;;26.00;23.23;;;;;;;20.98;100.00;100745.16;10455210;28;20033;-70
2023/08/25 06:48:03;;;;;;;32.13;24.63;;;;;;;20.98;100.00;100745.16;10453434;28;20025;-70
2023/08/25 06:53:06;;;;;;;31.77;25.23;;;;;;;21.02;100.00;100750.94;10455014;28;20048;-70
2023/08/25 06:58:07;;;;;;;42.15;24.88;;;;;;;21.09;100.00;100755.13;10454475;28;20357;-70
2023/08/25 07:03:07;;;;;;;31.00;23.83;;;;;;;21.12;100.00;100746.31;10454490;28;20143;-70
2023/08/25 07:08:08;;;;;;;33.75;24.63;;;;;;;21.08;100.00;100749.88;10436250;28;20036;-70
2023/08/25 07:13:08;;;;;;;44.03;26.10;;;;;;;21.29;100.00;100748.81;10453350;28;20037;-70
2023/08/25 07:18:09;;;;;;;33.83;25.92;;;;;;;21.49;100.00;100726.00;10451251;28;20358;-70
2023/08/25 07:23:09;;;;;;;31.58;22.48;;;;;;;22.10;100.00;100716.88;10436033;28;20119;-70
2023/08/25 07:28:11;;;;;;;26.52;21.90;;;;;;;23.57;100.00;100705.41;10453943;28;20025;-70
2023/08/25 07:33:11;;;;;;;27.33;20.13;;;;;;;24.52;100.00;100715.84;10451722;28;20024;-70
2023/08/25 07:38:11;;;;;;;29.73;20.33;;;;;;;24.49;100.00;100708.13;10453680;28;20037;-70
2023/08/25 07:43:12;;;;;;;31.20;18.13;;;;;;;23.57;100.00;100722.81;10451052;28;20041;-70
2023/08/25 07:48:13;;;;;;;20.88;15.55;;;;;;;23.12;100.00;100722.03;10456265;28;20080;-69
2023/08/25 07:53:13;;;;;;;19.70;14.95;;;;;;;22.97;100.00;100731.25;10461924;28;20032;-69
2023/08/25 07:58:14;;;;;;;12.68;11.50;;;;;;;23.00;100.00;100734.53;10460495;28;20036;-69
2023/08/25 08:03:15;;;;;;;21.90;11.80;;;;;;;22.80;100.00;100739.00;10442876;28;20041;-69
2023/08/25 08:08:15;;;;;;;16.45;11.57;;;;;;;22.52;100.00;100743.25;10460564;28;20037;-69
2023/08/25 08:13:15;;;;;;;11.50;10.50;;;;;;;22.52;100.00;100741.31;10460650;28;20037;-69
2023/08/25 08:18:16;;;;;;;15.65;9.63;;;;;;;22.42;100.00;100743.31;10462490;28;20449;-69
2023/08/25 08:23:16;;;;;;;15.05;11.65;;;;;;;22.42;100.00;100738.59;10458518;28;20131;-69
2023/08/25 08:28:17;;;;;;;16.92;10.02;;;;;;;22.58;100.00;100755.13;10460036;28;20457;-69
2023/08/25 08:33:18;;;;;;;8.98;8.05;;;;;;;22.72;100.00;100740.44;10461189;28;20041;-69
2023/08/25 08:38:18;;;;;;;16.15;8.57;;;;;;;23.01;100.00;100747.25;10459473;28;20033;-69
2023/08/25 08:43:19;;;;;;;10.02;7.05;;;;;;;23.18;100.00;100750.44;10443535;28;20029;-68
2023/08/25 08:48:20;;;;;;;8.43;6.93;;;;;;;23.44;100.00;100746.41;10459319;28;20033;-68
2023/08/25 08:53:21;;;;;;;15.52;7.80;;;;;;;23.64;100.00;100750.13;10459432;28;20452;-68
2023/08/25 08:58:21;;;;;;;13.75;8.30;;;;;;;24.83;100.00;100749.50;10459310;28;20029;-68
2023/08/25 09:03:22;;;;;;;7.70;6.95;;;;;;;25.82;100.00;100747.00;10459056;28;20037;-69
2023/08/25 09:08:22;;;;;;;11.95;6.90;;;;;;;25.67;100.00;100756.34;10441055;28;20135;-68
2023/08/25 09:13:23;;;;;;;11.98;7.50;;;;;;;25.24;100.00;100754.53;10457578;28;20029;-68
2023/08/25 09:18:24;;;;;;;10.75;8.82;;;;;;;24.80;100.00;100771.44;10457886;28;20404;-69
2023/08/25 09:23:24;;;;;;;9.88;7.80;;;;;;;24.48;100.00;100775.69;10457999;28;20412;-68
2023/08/25 09:28:25;;;;;;;13.38;8.05;;;;;;;24.71;100.00;100779.56;10456558;28;20036;-69
2023/08/25 09:33:26;;;;;;;7.78;6.85;;;;;;;24.68;100.00;100774.63;10457723;28;20029;-69
2023/08/25 09:38:27;;;;;;;14.85;8.32;;;;;;;24.71;100.00;100775.97;10457366;28;20112;-69
2023/08/25 09:43:29;;;;;;;12.10;10.27;;;;;;;24.64;100.00;100770.78;10457235;28;20048;-68
2023/08/25 09:48:32;;;;;;;17.95;9.63;;;;;;;25.01;100.00;100774.75;10457291;28;20033;-69
2023/08/25 09:53:33;;;;;;;14.80;10.15;;;;;;;25.67;100.00;100765.50;10456052;28;20326;-69
2023/08/25 09:58:33;;;;;;;13.43;8.82;;;;;;;25.96;100.00;100756.97;10455874;28;20060;-68
2023/08/25 10:03:34;;;;;;;13.32;7.57;;;;;;;28.09;100.00;100759.38;10455658;28;20465;-69
2023/08/25 10:08:34;;;;;;;8.13;6.90;;;;;;;29.37;100.00;100739.78;10455106;28;20441;-68
2023/08/25 10:13:35;;;;;;;11.65;7.93;;;;;;;29.98;100.00;100739.75;10454980;28;20041;-69
2023/08/25 10:18:38;;;;;;;14.53;6.37;;;;;;;28.52;100.00;100743.69;10456078;28;20055;-69
2023/08/25 10:23:39;;;;;;;7.88;7.18;;;;;;;27.29;100.00;100729.31;10456256;28;20266;-69
2023/08/25 10:28:39;;;;;;;12.60;8.73;;;;;;;26.78;100.00;100732.41;10456078;28;20345;-69
2023/08/25 10:33:50;;;;;;;10.05;7.88;;;;;;;26.80;100.00;100733.75;10437453;28;20060;-69
2023/08/25 10:38:59;;;;;;;11.40;8.57;;;;;;;26.97;100.00;100732.28;10455557;28;20033;-69
2023/08/25 10:43:59;;;;;;;9.02;8.15;;;;;;;26.80;100.00;100739.31;10454655;28;20472;-69
2023/08/25 10:49:06;;;;;;;24.52;10.65;;;;;;;26.53;100.00;100737.34;10453631;28;20029;-69
2023/08/25 10:54:16;;;;;;;11.90;10.73;;;;;;;26.28;100.00;100740.59;10454787;28;20522;-68
2023/08/25 10:59:16;;;;;;;18.48;12.35;;;;;;;26.04;100.00;100743.53;10453394;28;20360;-69
2023/08/25 11:04:24;;;;;;;15.82;11.50;;;;;;;26.64;100.00;100741.59;10453766;28;20033;-69
2023/08/25 11:09:24;;;;;;;17.02;11.77;;;;;;;27.79;100.00;100748.72;10452889;28;20106;-69
2023/08/25 11:14:31;;;;;;;15.70;12.25;;;;;;;26.96;100.00;100750.88;10453379;28;20052;-69
2023/08/25 11:19:32;;;;;;;13.48;12.05;;;;;;;26.38;100.00;100757.88;10452201;28;20464;-69
2023/08/25 11:24:32;;;;;;;21.00;13.63;;;;;;;25.60;100.00;100761.47;10452372;28;20119;-69
2023/08/25 11:29:33;;;;;;;18.10;11.32;;;;;;;24.97;100.00;100765.38;10451750;28;20071;-69
2023/08/25 11:34:33;;;;;;;16.27;12.23;;;;;;;24.58;100.00;100769.19;10451765;28;20116;-69
2023/08/25 11:39:41;;;;;;;21.77;12.35;;;;;;;25.07;100.00;100776.34;10451889;28;20461;-69
2023/08/25 11:44:42;;;;;;;22.70;12.50;;;;;;;25.38;100.00;100776.75;10453574;28;20029;-68
2023/08/25 11:49:42;;;;;;;14.40;11.43;;;;;;;25.79;100.00;100773.34;10451198;28;20055;-69
2023/08/25 11:54:46;;;;;;;16.88;10.35;;;;;;;25.92;100.00;100774.56;10434971;28;20148;-69
2023/08/25 11:59:47;;;;;;;16.85;10.55;;;;;;;25.24;100.00;100779.47;10452689;28;20503;-69
2023/08/25 12:04:52;;;;;;;11.75;9.70;;;;;;;25.60;100.00;100767.00;10435471;28;20025;-69
2023/08/25 12:09:58;;;;;;;11.55;9.50;;;;;;;25.41;100.00;100776.16;10436542;28;20051;-69
2023/08/25 12:14:59;;;;;;;15.57;10.50;;;;;;;25.07;100.00;100773.56;10435583;28;20125;-69
2023/08/25 12:19:59;;;;;;;17.25;11.05;;;;;;;24.98;100.00;100762.34;10435060;28;20124;-69
2023/08/25 12:25:00;;;;;;;11.18;10.00;;;;;;;24.52;100.00;100770.38;10453217;28;20037;-69
2023/08/25 12:30:00;;;;;;;13.95;8.85;;;;;;;24.56;100.00;100768.66;10451882;28;20133;-69
2023/08/25 12:35:00;;;;;;;9.13;8.15;;;;;;;24.86;100.00;100772.19;10455607;28;20384;-69
2023/08/25 12:40:01;;;;;;;12.95;9.98;;;;;;;25.44;100.00;100781.09;10460282;28;20170;-68
2023/08/25 12:45:01;;;;;;;11.50;9.38;;;;;;;25.10;100.00;100778.50;10458903;28;20461;-69
2023/08/25 12:50:02;;;;;;;11.65;8.82;;;;;;;24.65;100.00;100786.28;10458408;28;20045;-69
2023/08/25 12:55:03;;;;;;;10.85;8.30;;;;;;;24.14;100.00;100787.59;10441198;28;20043;-68
2023/08/25 13:00:05;;;;;;;17.20;10.43;;;;;;;24.05;100.00;100772.75;10440812;28;20029;-69
2023/08/25 13:05:06;;;;;;;13.32;8.50;;;;;;;23.90;100.00;100787.56;10458549;28;20047;-69
2023/08/25 13:10:07;;;;;;;12.77;8.48;;;;;;;24.09;100.00;100790.44;10456877;28;20111;-68
2023/08/25 13:15:08;;;;;;;9.32;8.30;;;;;;;24.30;100.00;100785.50;10456563;28;20069;-68
2023/08/25 13:20:08;;;;;;;9.52;7.68;;;;;;;25.32;100.00;100782.69;10457089;28;20082;-69
2023/08/25 13:25:09;;;;;;;10.93;8.60;;;;;;;26.58;100.00;100787.25;10458990;28;20060;-68
2023/08/25 13:30:10;;;;;;;10.13;7.85;;;;;;;26.78;100.00;100779.63;10455948;28;20404;-69
2023/08/25 13:35:10;;;;;;;7.90;7.07;;;;;;;25.77;100.00;100785.88;10474406;28;20033;-69
2023/08/25 13:40:11;;;;;;;7.88;7.13;;;;;;;25.38;100.00;100781.47;10456251;28;20072;-69
2023/08/25 13:45:11;;;;;;;7.63;6.93;;;;;;;25.03;100.00;100780.81;10457121;28;20116;-69
2023/08/25 13:50:12;;;;;;;11.35;7.75;;;;;;;24.59;100.00;100773.63;10456763;28;20352;-69
2023/08/25 13:55:12;;;;;;;11.18;6.68;;;;;;;24.72;100.00;100769.31;10455595;28;20124;-69
2023/08/25 14:00:13;;;;;;;6.95;6.25;;;;;;;25.69;100.00;100763.25;10456376;28;20421;-69
2023/08/25 14:05:17;;;;;;;9.90;5.68;;;;;;;26.44;100.00;100764.97;10455705;28;20072;-69
2023/08/25 14:10:17;;;;;;;9.63;4.55;;;;;;;25.94;100.00;100773.13;10454603;28;20113;-69
2023/08/25 14:15:18;;;;;;;4.72;4.35;;;;;;;25.71;100.00;100768.47;10454342;28;20390;-69
2023/08/25 14:20:18;;;;;;;3.67;3.40;;;;;;;25.63;100.00;100758.91;10437786;28;20041;-69
2023/08/25 14:25:19;;;;;;;13.30;4.53;;;;;;;25.22;100.00;100773.38;10455247;28;20032;-69
2023/08/25 14:30:19;;;;;;;3.50;3.20;;;;;;;26.06;100.00;100769.03;10455377;28;20029;-68
2023/08/25 14:35:19;;;;;;;3.92;3.67;;;;;;;25.85;100.00;100774.94;10455601;28;20338;-69
2023/08/25 14:40:20;;;;;;;3.58;3.28;;;;;;;25.73;100.00;100789.25;10454407;28;20040;-68
2023/08/25 14:45:20;;;;;;;6.05;3.92;;;;;;;24.86;100.00;100780.50;10454408;28;20119;-69
2023/08/25 14:50:21;;;;;;;4.93;4.28;;;;;;;24.35;100.00;100788.25;10436905;28;20029;-69
2023/08/25 14:55:22;;;;;;;5.63;4.60;;;;;;;24.01;100.00;100799.34;10436962;28;20139;-69
2023/08/25 15:00:22;;;;;;;4.28;3.88;;;;;;;23.56;100.00;100814.34;10455918;28;20434;-68
2023/08/25 15:05:24;;;;;;;5.65;4.20;;;;;;;23.09;100.00;100816.50;10452324;28;20033;-68
2023/08/25 15:10:25;;;;;;;4.00;3.65;;;;;;;22.77;100.00;100824.34;10437714;28;20044;-68
2023/08/25 15:15:25;;;;;;;6.97;3.80;;;;;;;22.70;100.00;100819.13;10454079;28;20405;-68
2023/08/25 15:20:26;;;;;;;4.95;3.42;;;;;;;22.61;100.00;100823.56;10453774;28;20036;-68
2023/08/25 15:25:26;;;;;;;6.38;3.17;;;;;;;22.30;100.00;100829.13;10453323;28;20118;-68
2023/08/25 15:30:27;;;;;;;2.53;2.33;;;;;;;22.49;100.00;100824.69;10453250;28;20033;-69
2023/08/25 15:35:27;;;;;;;3.45;2.97;;;;;;;22.48;100.00;100819.44;10451500;28;20033;-68
2023/08/25 15:40:32;;;;;;;3.90;2.65;;;;;;;22.40;100.00;100812.56;10451311;28;20163;-68
2023/08/25 15:45:32;;;;;;;8.93;3.00;;;;;;;22.37;100.00;100818.66;10451151;28;20088;-68
2023/08/25 15:50:33;;;;;;;3.33;3.03;;;;;;;22.39;100.00;100818.34;10452156;28;20436;-69
2023/08/25 15:55:33;;;;;;;4.32;3.63;;;;;;;22.38;100.00;100822.22;10434385;28;20124;-68
2023/08/25 16:00:34;;;;;;;6.72;3.42;;;;;;;22.15;100.00;100826.38;10452695;28;20049;-68
2023/08/25 16:05:34;;;;;;;3.05;2.75;;;;;;;21.87;100.00;100828.56;10450860;28;20033;-68
2023/08/25 16:10:35;;;;;;;2.80;2.20;;;;;;;22.01;100.00;100807.59;10458219;28;20085;-68
2023/08/25 16:15:38;;;;;;;3.15;1.98;;;;;;;22.31;100.00;100807.91;10459807;28;20049;-69
2023/08/25 16:20:39;;;;;;;4.47;2.15;;;;;;;22.22;100.00;100813.97;10458849;28;20033;-68
2023/08/25 16:25:40;;;;;;;3.28;2.08;;;;;;;21.88;100.00;100812.84;10442260;28;20029;-68
2023/08/25 16:30:41;;;;;;;3.55;2.00;;;;;;;21.66;100.00;100810.34;10442426;28;20029;-68
2023/08/25 16:35:41;;;;;;;2.28;2.17;;;;;;;21.55;100.00;100802.06;10460881;28;20380;-68
2023/08/25 16:40:42;;;;;;;3.05;2.80;;;;;;;21.53;100.00;100807.00;10458088;28;20058;-68
2023/08/25 16:45:42;;;;;;;6.15;2.40;;;;;;;21.30;100.00;100800.03;10459136;28;20040;-68
2023/08/25 16:50:42;;;;;;;4.35;2.13;;;;;;;20.97;100.00;100804.09;10457755;28;20188;-68
2023/08/25 16:55:43;;;;;;;2.72;2.53;;;;;;;20.79;100.00;100797.13;10459760;28;20538;-68
2023/08/25 17:00:45;;;;;;;4.43;3.25;;;;;;;20.78;100.00;100805.66;10457195;28;20124;-68
2023/08/25 17:05:46;;;;;;;3.25;2.97;;;;;;;20.81;100.00;100816.13;10457632;28;20396;-68
2023/08/25 17:10:47;;;;;;;3.05;2.75;;;;;;;20.87;100.00;100809.56;10441128;28;20068;-68
2023/08/25 17:15:47;;;;;;;6.45;2.90;;;;;;;20.89;100.00;100808.16;10456718;28;20049;-68
2023/08/25 17:20:47;;;;;;;5.00;2.13;;;;;;;20.74;100.00;100812.75;10455241;28;20339;-68
2023/08/25 17:25:48;;;;;;;10.00;2.10;;;;;;;20.42;100.00;100814.50;10457976;28;20175;-68
2023/08/25 17:30:48;;;;;;;2.30;1.92;;;;;;;20.38;100.00;100813.34;10457822;28;20365;-68
2023/08/25 17:35:48;;;;;;;11.20;1.58;;;;;;;20.19;100.00;100821.19;10458174;28;20064;-68
2023/08/25 17:40:49;;;;;;;1.30;1.30;;;;;;;20.14;100.00;100823.91;10458433;28;20432;-68
2023/08/25 17:45:49;;;;;;;2.25;1.88;;;;;;;20.04;100.00;100829.34;10455800;28;20123;-68
2023/08/25 17:50:50;;;;;;;1.75;1.65;;;;;;;19.89;100.00;100821.78;10458038;28;20052;-68
2023/08/25 17:55:50;;;;;;;3.95;2.00;;;;;;;19.71;100.00;100839.47;10455909;28;20041;-68
2023/08/25 18:00:58;;;;;;;5.97;1.73;;;;;;;19.58;100.00;100844.53;10455340;28;20048;-68
2023/08/25 18:06:01;;;;;;;5.53;2.50;;;;;;;19.57;100.00;100848.38;10456502;28;20029;-68
2023/08/25 18:11:02;;;;;;;2.85;2.15;;;;;;;19.39;100.00;100841.31;10456125;28;20025;-68
2023/08/25 18:16:05;;;;;;;4.15;1.95;;;;;;;19.09;100.00;100841.78;10456489;28;20056;-67
2023/08/25 18:21:06;;;;;;;1.70;1.60;;;;;;;18.97;100.00;100847.38;10456160;28;20057;-68
2023/08/25 18:26:06;;;;;;;1.27;1.25;;;;;;;18.97;100.00;100856.44;10455278;28;20167;-68
2023/08/25 18:31:06;;;;;;;2.90;1.75;;;;;;;18.97;100.00;100858.38;10454831;28;20112;-68
2023/08/25 18:36:08;;;;;;;2.72;2.40;;;;;;;19.01;100.00;100865.00;10455804;28;20041;-68
2023/08/25 18:41:08;;;;;;;7.97;1.98;;;;;;;19.04;100.00;100875.47;10453996;28;20219;-72
2023/08/25 18:46:09;;;;;;;2.47;2.28;;;;;;;19.00;100.00;100868.84;10454868;28;20174;-71
2023/08/25 18:51:10;;;;;;;1.80;1.70;;;;;;;18.97;100.00;100875.66;10453817;28;20044;-72
2023/08/25 18:56:11;;;;;;;3.78;2.45;;;;;;;18.87;100.00;100880.19;10455294;28;20116;-72
2023/08/25 19:01:12;;;;;;;10.07;2.00;;;;;;;18.64;100.00;100872.97;10456060;28;20505;-72
2023/08/25 19:06:12;;;;;;;6.00;2.58;;;;;;;18.55;100.00;100889.03;10452736;28;20052;-72
2023/08/25 19:11:13;;;;;;;3.03;1.63;;;;;;;18.56;100.00;100891.50;10435796;28;20041;-72
2023/08/25 19:16:14;;;;;;;2.05;1.58;;;;;;;18.62;100.00;100899.81;10452817;28;20049;-71
2023/08/25 19:21:15;;;;;;;1.92;1.58;;;;;;;18.58;100.00;100894.00;10451917;28;20084;-71
2023/08/25 19:26:16;;;;;;;4.28;1.83;;;;;;;18.43;100.00;100894.59;10452357;28;20043;-71
2023/08/25 19:31:17;;;;;;;2.10;1.90;;;;;;;18.20;100.00;100897.50;10452991;28;20029;-73
2023/08/25 19:36:17;;;;;;;5.07;1.95;;;;;;;18.12;100.00;100901.47;10451515;28;20401;-71
2023/08/25 19:41:19;;;;;;;1.63;1.50;;;;;;;18.16;100.00;100915.53;10453015;28;20120;-70
2023/08/25 19:46:19;;;;;;;4.47;1.70;;;;;;;18.07;100.00;100909.59;10452203;28;20033;-71
2023/08/25 19:51:19;;;;;;;2.80;1.90;;;;;;;17.82;100.00;100913.53;10453482;28;20033;-68
2023/08/25 19:56:20;;;;;;;1.90;1.80;;;;;;;17.57;100.00;100911.09;10452356;28;20029;-68
2023/08/25 20:01:20;;;;;;;3.83;2.40;;;;;;;17.47;100.00;100915.56;10453159;28;20037;-69
2023/08/25 20:06:21;;;;;;;2.28;2.08;;;;;;;17.54;100.00;100916.25;10453140;28;20480;-69
2023/08/25 20:11:22;;;;;;;3.25;2.10;;;;;;;17.51;100.00;100922.19;10452259;28;20041;-69
2023/08/25 20:16:23;;;;;;;3.67;1.92;;;;;;;17.43;100.00;100927.00;10452946;28;20145;-68
2023/08/25 20:21:25;;;;;;;13.32;2.47;;;;;;;17.40;100.00;100916.53;10452764;28;20032;-68
2023/08/25 20:26:25;;;;;;;3.13;1.65;;;;;;;17.44;100.00;100912.22;10453473;28;20041;-68
2023/08/25 20:31:25;;;;;;;3.90;1.65;;;;;;;17.49;100.00;100916.16;10451092;28;20077;-69
2023/08/25 20:36:26;;;;;;;4.40;2.75;;;;;;;17.59;100.00;100930.03;10452058;28;20040;-69
2023/08/25 20:41:26;;;;;;;2.22;1.92;;;;;;;17.65;100.00;100920.84;10452877;28;20041;-68
2023/08/25 20:46:27;;;;;;;1.55;1.45;;;;;;;17.78;100.00;100930.72;10450667;28;20055;-69
2023/08/25 20:51:27;;;;;;;2.30;2.15;;;;;;;17.90;100.00;100915.06;10450701;28;20033;-69
2023/08/25 20:56:28;;;;;;;4.90;2.72;;;;;;;17.88;100.00;100917.22;10454917;28;20056;-69
2023/08/25 21:01:28;;;;;;;4.80;1.73;;;;;;;17.80;100.00;100920.34;10459198;28;20037;-69
2023/08/25 21:06:32;;;;;;;3.97;1.75;;;;;;;17.71;100.00;100922.63;10459256;28;20053;-68
2023/08/25 21:11:33;;;;;;;3.80;1.65;;;;;;;17.60;100.00;100921.56;10457529;28;20041;-68
2023/08/25 21:16:37;;;;;;;8.73;1.85;;;;;;;17.47;100.00;100918.28;10458296;28;20081;-68
2023/08/25 21:21:39;;;;;;;10.25;2.47;;;;;;;17.35;100.00;100924.63;10458245;28;20041;-68
2023/08/25 21:26:40;;;;;;;2.80;1.88;;;;;;;17.25;100.00;100915.38;10457605;28;20120;-68
2023/08/25 21:31:41;;;;;;;3.03;1.95;;;;;;;17.14;100.00;100922.53;10458691;28;20033;-67
2023/08/25 21:36:41;;;;;;;2.75;1.80;;;;;;;17.07;100.00;100921.81;10458561;28;20064;-68
2023/08/25 21:41:41;;;;;;;2.30;2.10;;;;;;;17.12;100.00;100924.69;10456621;28;20029;-68
2023/08/25 21:46:42;;;;;;;2.72;1.98;;;;;;;17.18;100.00;100918.25;10457677;28;20110;-67
2023/08/25 21:51:42;;;;;;;2.53;1.98;;;;;;;17.29;100.00;100911.06;10455828;28;20029;-67
2023/08/25 21:56:43;;;;;;;4.15;2.13;;;;;;;17.39;100.00;100912.13;10458165;28;20124;-67
2023/08/25 22:01:43;;;;;;;2.47;2.33;;;;;;;17.41;100.00;100906.41;10454936;28;20072;-68
2023/08/25 22:06:45;;;;;;;4.13;2.25;;;;;;;17.40;100.00;100904.75;10455738;28;20045;-67
2023/08/25 22:11:48;;;;;;;2.63;2.33;;;;;;;17.41;100.00;100900.94;10439982;28;20040;-68
2023/08/25 22:16:49;;;;;;;3.55;2.67;;;;;;;17.46;100.00;100895.56;10455835;28;20053;-67
2023/08/25 22:21:49;;;;;;;4.80;1.83;;;;;;;17.48;100.00;100893.41;10455864;28;20044;-68
2023/08/25 22:26:50;;;;;;;3.78;2.85;;;;;;;17.52;100.00;100888.28;10454008;28;20056;-68
2023/08/25 22:31:56;;;;;;;2.05;1.85;;;;;;;17.60;100.00;100898.84;10453973;28;20082;-68